Mattoon, Illinois
Current Conditions -  °F | °C
As of 2:53 AM on Monday 20 Oct 2014 (Local Time) from KMTO Reporting Station
Broken Clouds Broken Clouds  
Wind Chill: 50°   Ceiling: 9500
Heat Index: 50°   Visibility: 10mi
Dew Point: 44°   Wind: 8mph
Humidity: 80%   Direction: 190°S
Pressure: 29.96"   Gusts: NA
Location:  39.48°N, 88.37°W
Report Text: KMTO 200753Z AUTO 19007KT 10SM BKN095 10/07 A2996 RMK AO2 SLP148 T01000067
Loading
Personal Weather Stations






























Interactive Weather Map New forecast layout! Learn more

10-Day Weather Forecast

Advertisements
Track Severe Weather on mobile